Time;durP1;ratioP1;P1;durP2;ratioP2;P2;SDS_P1;SDS_P2;PMS_P1;PMS_P2;Temp;Humidity;BMP_temperature;BMP_pressure;BME280_temperature;BME280_humidity;BME280_pressure;Samples;Min_cycle;Max_cycle;Signal;HPM_P1;HPM_P2
2023/10/07 00:00:40;;;;;;;12.63;6.22;;;8.90;99.90;;;;;;5048954;28;20093;-86
2023/10/07 00:03:06;;;;;;;12.27;6.38;;;8.90;99.90;;;;;;5042845;28;20071;-86
2023/10/07 00:05:35;;;;;;;17.85;7.18;;;8.90;99.90;;;;;;5054672;28;20036;-86
2023/10/07 00:08:19;;;;;;;13.88;6.72;;;8.90;99.90;;;;;;5055696;28;20401;-84
2023/10/07 00:10:48;;;;;;;16.42;7.65;;;8.90;99.90;;;;;;5055121;28;20035;-85
2023/10/07 00:13:17;;;;;;;13.80;6.45;;;8.90;99.90;;;;;;5067715;28;20098;-86
2023/10/07 00:15:43;;;;;;;13.98;6.35;;;8.80;99.90;;;;;;5037517;28;20206;-85
2023/10/07 00:18:13;;;;;;;14.00;7.55;;;8.80;99.90;;;;;;5051300;28;20035;-84
2023/10/07 00:20:48;;;;;;;19.30;7.20;;;8.80;99.90;;;;;;5072697;28;20480;-86
2023/10/07 00:23:19;;;;;;;12.93;6.18;;;8.70;99.90;;;;;;5055958;28;20042;-86
2023/10/07 00:25:49;;;;;;;17.13;7.65;;;8.70;99.90;;;;;;5056816;28;20032;-85
2023/10/07 00:28:27;;;;;;;14.20;7.15;;;8.70;99.90;;;;;;5044518;28;20052;-84
2023/10/07 00:30:55;;;;;;;16.17;8.13;;;8.80;99.90;;;;;;5057147;28;20071;-85
2023/10/07 00:33:22;;;;;;;18.98;7.28;;;8.80;99.90;;;;;;5054617;28;20061;-85
2023/10/07 00:35:49;;;;;;;15.65;7.75;;;8.80;99.90;;;;;;5054026;28;20039;-85
2023/10/07 00:38:16;;;;;;;16.45;7.25;;;8.80;99.90;;;;;;5050793;28;20031;-85
2023/10/07 00:40:53;;;;;;;16.02;6.82;;;8.80;99.90;;;;;;5060154;28;20020;-86
2023/10/07 00:43:26;;;;;;;17.38;7.57;;;8.80;99.90;;;;;;5055722;28;20499;-86
2023/10/07 00:46:10;;;;;;;14.75;6.88;;;8.80;99.90;;;;;;5054966;28;20067;-87
2023/10/07 00:48:52;;;;;;;15.85;7.68;;;8.80;99.90;;;;;;5045475;28;20032;-85
2023/10/07 00:51:33;;;;;;;18.60;8.00;;;8.80;99.90;;;;;;5059081;28;20036;-86
2023/10/07 00:57:07;;;;;;;14.97;7.40;;;8.80;99.90;;;;;;5062400;28;20024;-86
2023/10/07 00:59:35;;;;;;;15.70;6.85;;;8.80;99.90;;;;;;5045543;28;20090;-86
2023/10/07 01:02:06;;;;;;;21.05;8.13;;;8.80;99.90;;;;;;5039358;28;20119;-85
2023/10/07 01:04:40;;;;;;;15.48;7.60;;;8.80;99.90;;;;;;5032722;28;20082;-85
2023/10/07 01:07:19;;;;;;;16.67;7.50;;;8.90;99.90;;;;;;5037905;28;20679;-86
2023/10/07 01:10:12;;;;;;;14.60;6.90;;;8.90;99.90;;;;;;5035955;28;20033;-87
2023/10/07 01:12:39;;;;;;;14.88;6.90;;;8.90;99.90;;;;;;5053650;28;20044;-86
2023/10/07 01:15:23;;;;;;;16.67;8.07;;;9.00;99.90;;;;;;5049227;28;20532;-86
2023/10/07 01:17:54;;;;;;;13.73;7.30;;;8.90;99.90;;;;;;5053866;28;20033;-86
2023/10/07 01:20:35;;;;;;;17.95;7.90;;;8.90;99.90;;;;;;5053845;28;20044;-86
2023/10/07 01:23:03;;;;;;;15.02;6.88;;;8.90;99.90;;;;;;5065753;28;20024;-84
2023/10/07 01:25:43;;;;;;;14.65;6.88;;;8.90;99.90;;;;;;5069654;28;20092;-87
2023/10/07 01:28:14;;;;;;;15.13;6.90;;;8.80;99.90;;;;;;5050809;28;20166;-86
2023/10/07 01:33:38;;;;;;;13.95;6.57;;;8.80;99.90;;;;;;5064079;28;20032;-86
2023/10/07 01:36:46;;;;;;;12.88;6.95;;;8.80;99.90;;;;;;5041867;28;20060;-85
2023/10/07 01:38:53;;;;;;;14.77;6.43;;;8.80;99.90;;;;;;5069692;28;20049;-85
2023/10/07 01:41:21;;;;;;;15.00;6.57;;;8.80;99.90;;;;;;5051999;28;20082;-85
2023/10/07 01:43:59;;;;;;;12.90;6.30;;;8.80;99.90;;;;;;5066779;28;20060;-87
2023/10/07 01:46:29;;;;;;;15.25;7.32;;;8.80;99.90;;;;;;5052284;28;20029;-86
2023/10/07 01:49:01;;;;;;;15.20;6.75;;;8.70;99.90;;;;;;5053342;28;20040;-87
2023/10/07 01:51:30;;;;;;;15.10;6.93;;;8.70;99.90;;;;;;5051284;28;20036;-87
2023/10/07 01:54:03;;;;;;;15.80;6.55;;;8.70;99.90;;;;;;5052768;28;20524;-85
2023/10/07 01:56:31;;;;;;;16.88;7.28;;;8.70;99.90;;;;;;5044143;28;20503;-86
2023/10/07 02:01:43;;;;;;;15.52;7.53;;;8.70;99.90;;;;;;5045418;28;20037;-85
2023/10/07 02:04:17;;;;;;;16.67;7.93;;;8.70;99.90;;;;;;5053199;28;20466;-87
2023/10/07 02:06:51;;;;;;;15.32;7.70;;;8.70;99.90;;;;;;5062911;28;20473;-87
2023/10/07 02:09:24;;;;;;;11.90;6.28;;;8.70;99.90;;;;;;5064578;28;20124;-87
2023/10/07 02:11:55;;;;;;;17.85;7.97;;;8.70;99.90;;;;;;5053564;28;20032;-87
2023/10/07 02:14:25;;;;;;;15.90;7.65;;;8.70;99.90;;;;;;5063396;28;20488;-85
2023/10/07 02:16:56;;;;;;;15.20;7.18;;;8.70;99.90;;;;;;5071015;28;20062;-87
2023/10/07 02:19:29;;;;;;;13.48;7.20;;;8.70;99.90;;;;;;5059361;28;20036;-86
2023/10/07 02:22:07;;;;;;;13.40;7.10;;;8.70;99.90;;;;;;5044162;28;20037;-86
2023/10/07 02:24:43;;;;;;;16.40;7.25;;;8.60;99.90;;;;;;5057650;28;20039;-87
2023/10/07 02:27:17;;;;;;;14.48;7.13;;;8.60;99.90;;;;;;5052467;28;20040;-85
2023/10/07 02:29:44;;;;;;;14.38;6.72;;;8.60;99.90;;;;;;5057533;28;20032;-86
2023/10/07 02:32:17;;;;;;;15.05;6.90;;;8.60;99.90;;;;;;5057412;28;20123;-84
2023/10/07 02:34:55;;;;;;;16.65;7.10;;;8.50;99.90;;;;;;5056262;28;20043;-86
2023/10/07 02:37:38;;;;;;;15.00;6.70;;;8.50;99.90;;;;;;5061553;28;20089;-86
2023/10/07 02:42:52;;;;;;;16.27;7.15;;;8.40;99.90;;;;;;5057067;28;20078;-86
2023/10/07 02:47:51;;;;;;;15.43;6.90;;;8.40;99.90;;;;;;5068895;28;20062;-87
2023/10/07 02:50:20;;;;;;;16.23;7.30;;;8.40;99.90;;;;;;5066746;28;20048;-86
2023/10/07 02:52:46;;;;;;;12.35;6.70;;;8.40;99.90;;;;;;5069281;28;20033;-87
2023/10/07 02:57:42;;;;;;;17.88;8.15;;;8.30;99.90;;;;;;5064400;28;20116;-86
2023/10/07 03:00:18;;;;;;;15.93;8.05;;;8.30;99.90;;;;;;5051418;28;20086;-87
2023/10/07 03:02:50;;;;;;;;;;;8.30;99.90;;;;;;5053329;28;20146;-86
2023/10/07 03:05:27;;;;;;;17.80;7.32;;;8.30;99.90;;;;;;5056196;28;19944;-87
2023/10/07 03:08:02;;;;;;;15.63;7.43;;;8.30;99.90;;;;;;5067633;28;20382;-85
2023/10/07 03:10:43;;;;;;;15.85;6.95;;;8.30;99.90;;;;;;5039145;28;20029;-86
2023/10/07 03:13:10;;;;;;;19.85;8.85;;;8.30;99.90;;;;;;5055135;28;20047;-86
2023/10/07 03:18:20;;;;;;;18.20;7.90;;;8.30;99.90;;;;;;5065649;28;20037;-85
2023/10/07 03:21:00;;;;;;;17.88;7.72;;;8.30;99.90;;;;;;5057741;28;20100;-86
2023/10/07 03:23:26;;;;;;;12.57;7.05;;;8.30;99.90;;;;;;5036112;28;20036;-86
2023/10/07 03:28:30;;;;;;;17.58;8.20;;;8.20;99.90;;;;;;5053747;28;20035;-85
2023/10/07 03:30:56;;;;;;;16.90;6.85;;;8.30;99.90;;;;;;5066595;28;20403;-85
2023/10/07 03:33:32;;;;;;;17.52;7.97;;;8.20;99.90;;;;;;5054966;28;20230;-85
2023/10/07 03:36:09;;;;;;;16.42;7.28;;;8.20;99.90;;;;;;5041722;28;20508;-85
2023/10/07 03:38:35;;;;;;;17.90;7.95;;;8.20;99.90;;;;;;5047216;28;20048;-85
2023/10/07 03:41:06;;;;;;;13.90;7.22;;;8.20;99.90;;;;;;5051067;28;20698;-87
2023/10/07 03:43:37;;;;;;;13.30;6.38;;;8.20;99.90;;;;;;5050630;28;20020;-85
2023/10/07 03:46:03;;;;;;;14.02;6.88;;;8.20;99.90;;;;;;5071826;28;20041;-85
2023/10/07 03:48:31;;;;;;;16.05;7.95;;;8.10;99.90;;;;;;5063227;28;20025;-86
2023/10/07 03:51:08;;;;;;;17.55;7.28;;;8.10;99.90;;;;;;5038357;28;20032;-87
2023/10/07 03:53:44;;;;;;;17.75;7.22;;;8.10;99.90;;;;;;5040664;28;20476;-85
2023/10/07 03:56:12;;;;;;;15.93;7.38;;;8.00;99.90;;;;;;5071125;28;20036;-88
2023/10/07 03:58:38;;;;;;;16.10;7.47;;;8.00;99.90;;;;;;5050051;28;20021;-86
2023/10/07 04:01:11;;;;;;;14.23;6.88;;;8.00;99.90;;;;;;5073045;28;20025;-86
2023/10/07 04:03:39;;;;;;;15.82;7.63;;;8.10;99.90;;;;;;5055691;28;20448;-86
2023/10/07 04:06:05;;;;;;;15.93;7.22;;;8.10;99.90;;;;;;5030788;28;20028;-86
2023/10/07 04:08:32;;;;;;;12.90;6.60;;;8.10;99.90;;;;;;5049584;28;20060;-86
2023/10/07 04:10:58;;;;;;;12.63;6.50;;;8.10;99.90;;;;;;5040073;28;20427;-86
2023/10/07 04:13:24;;;;;;;12.95;6.60;;;8.10;99.90;;;;;;5070173;28;20515;-86
2023/10/07 04:15:51;;;;;;;15.50;7.10;;;8.10;99.90;;;;;;5065502;28;20032;-87
2023/10/07 04:18:22;;;;;;;16.95;7.45;;;8.10;99.90;;;;;;5054184;28;20041;-85
2023/10/07 04:23:21;;;;;;;15.20;7.65;;;8.10;99.90;;;;;;5054022;28;20037;-88
2023/10/07 04:25:47;;;;;;;17.27;8.05;;;8.10;99.90;;;;;;5049569;28;20037;-85
2023/10/07 04:28:13;;;;;;;17.95;7.97;;;8.10;99.90;;;;;;5056391;28;20024;-88
2023/10/07 04:30:40;;;;;;;17.63;7.68;;;8.10;99.90;;;;;;5050001;28;20051;-84
2023/10/07 04:33:08;;;;;;;15.18;7.03;;;8.10;99.90;;;;;;5052780;28;20086;-84
2023/10/07 04:35:34;;;;;;;15.13;7.35;;;8.20;99.90;;;;;;5051025;28;20044;-87
2023/10/07 04:38:09;;;;;;;14.88;6.97;;;8.20;99.90;;;;;;5052048;28;20305;-86
2023/10/07 04:41:30;;;;;;;;;;;8.30;99.90;;;;;;5051627;28;20013;-87
2023/10/07 04:43:50;;;;;;;14.40;7.05;;;8.30;99.90;;;;;;5066167;28;19919;-86
2023/10/07 04:46:23;;;;;;;17.50;7.78;;;8.40;99.90;;;;;;5066687;28;20115;-87
2023/10/07 04:48:57;;;;;;;16.40;7.70;;;8.30;99.90;;;;;;5068073;28;20032;-86
2023/10/07 04:51:46;;;;;;;15.23;7.88;;;8.40;99.90;;;;;;5052253;28;20491;-85
2023/10/07 04:54:20;;;;;;;16.08;7.13;;;8.30;99.90;;;;;;5065870;28;20041;-88
2023/10/07 04:56:53;;;;;;;17.08;7.47;;;8.40;99.90;;;;;;5065466;28;20574;-86
2023/10/07 04:59:21;;;;;;;19.10;8.30;;;8.40;99.90;;;;;;5044297;28;20032;-86
2023/10/07 05:01:56;;;;;;;18.10;7.78;;;8.40;99.90;;;;;;5065848;28;20033;-85
2023/10/07 05:04:24;;;;;;;16.13;7.70;;;8.40;99.90;;;;;;5049392;28;20116;-86
2023/10/07 05:06:51;;;;;;;16.48;7.30;;;8.40;99.90;;;;;;5045562;28;20028;-86
2023/10/07 05:09:21;;;;;;;14.02;7.35;;;8.40;99.90;;;;;;5051222;28;20033;-85
2023/10/07 05:11:48;;;;;;;22.85;8.32;;;8.40;99.90;;;;;;5048758;28;20044;-86
2023/10/07 05:14:17;;;;;;;18.02;8.10;;;8.50;99.90;;;;;;5061250;28;20020;-87
2023/10/07 05:16:47;;;;;;;20.83;8.15;;;8.40;99.90;;;;;;5065344;28;20096;-86
2023/10/07 05:19:21;;;;;;;18.25;7.97;;;8.50;99.90;;;;;;5067193;28;20406;-85
2023/10/07 05:22:14;;;;;;;18.58;8.13;;;8.50;99.90;;;;;;5049670;28;20040;-86
2023/10/07 05:24:41;;;;;;;17.95;8.10;;;8.50;99.90;;;;;;5049062;28;20028;-87
2023/10/07 05:27:07;;;;;;;14.40;6.88;;;8.50;99.90;;;;;;5054576;28;20086;-85
2023/10/07 05:29:33;;;;;;;15.93;6.50;;;8.50;99.90;;;;;;5045296;28;20051;-84
2023/10/07 05:32:00;;;;;;;15.38;6.30;;;8.50;99.90;;;;;;5038475;28;20462;-84
2023/10/07 05:34:29;;;;;;;14.15;6.93;;;8.50;99.90;;;;;;5052308;28;20097;-86
2023/10/07 05:37:04;;;;;;;18.90;7.30;;;8.50;99.90;;;;;;5050218;28;20508;-85
2023/10/07 05:39:32;;;;;;;15.93;7.10;;;8.50;99.90;;;;;;5042156;28;20020;-87
2023/10/07 05:41:58;;;;;;;16.38;7.53;;;8.50;99.90;;;;;;5065776;28;20059;-86
2023/10/07 05:44:24;;;;;;;18.42;7.85;;;8.40;99.90;;;;;;5051195;28;20523;-87
2023/10/07 05:46:50;;;;;;;17.15;7.55;;;8.50;99.90;;;;;;5040761;28;20033;-86
2023/10/07 05:49:16;;;;;;;16.20;7.13;;;8.50;99.90;;;;;;5050466;28;20449;-86
2023/10/07 05:51:44;;;;;;;18.02;8.25;;;8.50;99.90;;;;;;5061103;28;20085;-87
2023/10/07 05:54:10;;;;;;;16.67;7.03;;;8.60;99.90;;;;;;5033224;28;20037;-85
2023/10/07 05:56:35;;;;;;;16.75;7.22;;;8.60;99.90;;;;;;5047902;28;20029;-86
2023/10/07 05:59:01;;;;;;;16.08;6.95;;;8.60;99.90;;;;;;5045808;28;20044;-88
2023/10/07 06:01:27;;;;;;;14.88;6.93;;;8.70;99.90;;;;;;5045023;28;20025;-85
2023/10/07 06:03:53;;;;;;;16.65;7.28;;;8.70;99.90;;;;;;5063531;28;20033;-86
2023/10/07 06:06:22;;;;;;;19.27;7.28;;;8.80;99.90;;;;;;5052142;28;20139;-88
2023/10/07 06:08:48;;;;;;;21.63;8.02;;;8.80;99.90;;;;;;5065082;28;20056;-86
2023/10/07 06:11:15;;;;;;;15.63;7.13;;;8.80;99.90;;;;;;5052985;28;20032;-86
2023/10/07 06:13:41;;;;;;;17.60;7.32;;;8.90;99.90;;;;;;5064528;28;20037;-84
2023/10/07 06:16:08;;;;;;;16.80;6.60;;;9.00;99.90;;;;;;5065992;28;20036;-85
2023/10/07 06:18:34;;;;;;;14.65;6.95;;;9.00;99.90;;;;;;5044623;28;20029;-88
2023/10/07 06:21:19;;;;;;;15.65;7.05;;;9.00;99.90;;;;;;5046770;28;20099;-86
2023/10/07 06:23:48;;;;;;;13.37;6.50;;;9.10;99.90;;;;;;5051399;28;20029;-86
2023/10/07 06:26:15;;;;;;;13.95;6.75;;;9.10;99.90;;;;;;5046553;28;20488;-86
2023/10/07 06:28:44;;;;;;;15.98;6.80;;;9.20;99.90;;;;;;5049346;28;20090;-85
2023/10/07 06:31:12;;;;;;;12.77;6.47;;;9.30;99.90;;;;;;5068504;28;20040;-87
2023/10/07 06:33:42;;;;;;;16.05;6.88;;;9.50;99.90;;;;;;5049764;28;20044;-86
2023/10/07 06:36:10;;;;;;;16.10;6.95;;;9.70;99.90;;;;;;5048252;28;20029;-86
2023/10/07 06:38:46;;;;;;;14.65;7.05;;;9.90;99.90;;;;;;5056706;28;20032;-85
2023/10/07 06:41:13;;;;;;;16.20;6.68;;;10.10;99.90;;;;;;5048651;28;20108;-86
2023/10/07 06:43:43;;;;;;;12.90;6.07;;;10.20;99.90;;;;;;5051682;28;20571;-85
2023/10/07 06:46:12;;;;;;;12.60;5.88;;;10.30;99.90;;;;;;5070199;28;20416;-87
2023/10/07 06:48:39;;;;;;;14.35;7.47;;;10.60;99.90;;;;;;5049889;28;20052;-87
2023/10/07 06:51:06;;;;;;;13.63;5.93;;;10.80;99.90;;;;;;5067609;28;20041;-86
2023/10/07 06:53:38;;;;;;;12.25;5.72;;;11.00;99.90;;;;;;5045386;28;20039;-87
2023/10/07 06:56:04;;;;;;;11.07;4.95;;;11.20;99.90;;;;;;5067350;28;20029;-88
2023/10/07 06:58:30;;;;;;;12.77;5.70;;;11.30;99.90;;;;;;5050907;28;20029;-87
2023/10/07 07:00:59;;;;;;;13.82;5.72;;;11.40;99.90;;;;;;5050109;28;20056;-87
2023/10/07 07:03:26;;;;;;;13.00;5.35;;;11.40;99.90;;;;;;5071992;28;20412;-86
2023/10/07 07:05:54;;;;;;;11.07;5.10;;;11.40;99.90;;;;;;5070666;28;20036;-85
2023/10/07 07:08:22;;;;;;;11.95;5.40;;;11.40;99.90;;;;;;5056667;28;20036;-87
2023/10/07 07:10:55;;;;;;;9.13;4.90;;;11.40;99.90;;;;;;5054377;28;20082;-87
2023/10/07 07:13:27;;;;;;;11.13;5.43;;;11.40;99.90;;;;;;5061823;28;20071;-86
2023/10/07 07:15:57;;;;;;;12.98;5.88;;;11.30;99.90;;;;;;5048013;28;20089;-86
2023/10/07 07:18:25;;;;;;;9.35;4.78;;;11.20;99.90;;;;;;5030523;28;20029;-86
2023/10/07 07:23:34;;;;;;;11.23;4.70;;;11.10;99.90;;;;;;5064070;28;20121;-86
2023/10/07 07:28:27;;;;;;;10.82;4.97;;;11.30;99.90;;;;;;5053636;28;20498;-85
2023/10/07 07:30:57;;;;;;;10.95;5.53;;;11.50;99.90;;;;;;5046322;28;20040;-86
2023/10/07 07:33:35;;;;;;;10.38;5.05;;;11.60;99.90;;;;;;5061964;28;20484;-85
2023/10/07 07:36:06;;;;;;;11.63;5.20;;;11.80;99.90;;;;;;5062142;28;20044;-87
2023/10/07 07:38:44;;;;;;;13.38;6.60;;;11.80;99.90;;;;;;5071546;28;20040;-86
2023/10/07 07:41:27;;;;;;;13.57;5.82;;;11.80;99.90;;;;;;5061561;28;20110;-87
2023/10/07 07:43:58;;;;;;;11.98;5.47;;;11.90;99.90;;;;;;5065756;28;20032;-87
2023/10/07 07:49:10;;;;;;;;;;;11.80;99.90;;;;;;5071390;28;20376;-86
2023/10/07 07:51:37;;;;;;;;;;;11.70;99.90;;;;;;5053051;28;20312;-88
2023/10/07 07:54:07;;;;;;;13.10;5.75;;;11.70;99.90;;;;;;5065793;28;19956;-86
2023/10/07 07:56:37;;;;;;;15.63;5.60;;;11.80;99.90;;;;;;5056238;28;20033;-86
2023/10/07 07:59:17;;;;;;;13.55;5.60;;;11.90;99.90;;;;;;5058222;28;20036;-87
2023/10/07 08:01:44;;;;;;;12.55;5.85;;;12.00;99.90;;;;;;5065788;28;20084;-87
2023/10/07 08:04:17;;;;;;;13.95;5.70;;;12.10;99.90;;;;;;5063601;28;20598;-87
2023/10/07 08:06:49;;;;;;;14.82;7.00;;;12.20;99.90;;;;;;5055342;28;20036;-86
2023/10/07 08:09:19;;;;;;;11.43;5.38;;;12.30;99.90;;;;;;5056015;28;20052;-87
2023/10/07 08:11:46;;;;;;;10.38;5.10;;;12.40;99.90;;;;;;5049636;28;20028;-87
2023/10/07 08:14:13;;;;;;;11.43;5.45;;;12.50;99.90;;;;;;5048441;28;20056;-88
2023/10/07 08:16:51;;;;;;;10.38;5.47;;;12.60;99.90;;;;;;5065749;28;20092;-88
2023/10/07 08:19:20;;;;;;;16.45;4.95;;;12.70;99.90;;;;;;5045834;28;20059;-87
2023/10/07 08:21:53;;;;;;;13.55;5.60;;;12.80;99.90;;;;;;5070951;28;20021;-86
2023/10/07 08:24:20;;;;;;;11.00;5.28;;;12.80;99.90;;;;;;5071510;28;20120;-86
2023/10/07 08:26:59;;;;;;;9.35;4.68;;;12.80;99.90;;;;;;5052907;28;20049;-87
2023/10/07 08:29:34;;;;;;;11.02;5.30;;;12.90;99.90;;;;;;5056979;28;20396;-89
2023/10/07 08:32:15;;;;;;;9.88;4.72;;;13.00;99.90;;;;;;5061241;28;20035;-87
2023/10/07 08:34:47;;;;;;;12.00;5.13;;;13.10;99.90;;;;;;5059772;28;20032;-88
2023/10/07 08:37:15;;;;;;;11.00;5.63;;;13.10;99.90;;;;;;5036723;28;20048;-85
2023/10/07 08:39:45;;;;;;;12.07;5.72;;;13.10;99.90;;;;;;5042381;28;20029;-86
2023/10/07 08:42:17;;;;;;;11.77;5.20;;;13.10;99.90;;;;;;5067526;28;20055;-85
2023/10/07 08:44:59;;;;;;;11.82;4.72;;;13.20;99.90;;;;;;5047064;28;20096;-86
2023/10/07 08:47:39;;;;;;;12.30;5.60;;;13.30;99.90;;;;;;5072824;28;20031;-87
2023/10/07 08:50:07;;;;;;;10.93;4.93;;;13.40;99.90;;;;;;5072911;28;20055;-86
2023/10/07 08:52:33;;;;;;;12.15;4.90;;;13.50;99.90;;;;;;5043718;28;20033;-86
2023/10/07 08:55:02;;;;;;;13.23;4.75;;;13.60;99.90;;;;;;5073687;28;20033;-87
2023/10/07 08:57:29;;;;;;;10.95;5.53;;;13.70;99.90;;;;;;5055225;28;20029;-86
2023/10/07 08:59:59;;;;;;;10.90;4.80;;;13.70;99.90;;;;;;5055581;28;20033;-86
2023/10/07 09:02:26;;;;;;;10.95;4.55;;;13.80;99.90;;;;;;5052438;28;20039;-87
2023/10/07 09:04:57;;;;;;;10.23;4.90;;;13.90;99.90;;;;;;5059358;28;20036;-87
2023/10/07 09:07:29;;;;;;;9.65;4.13;;;14.00;99.90;;;;;;5059616;28;20037;-86
2023/10/07 09:10:07;;;;;;;16.60;4.95;;;14.00;99.90;;;;;;5079155;28;20071;-87
2023/10/07 09:12:39;;;;;;;9.88;4.45;;;14.00;99.90;;;;;;5091949;28;20031;-86
2023/10/07 09:15:12;;;;;;;13.07;4.53;;;14.00;99.90;;;;;;5067667;28;20024;-86
2023/10/07 09:17:42;;;;;;;9.63;4.53;;;14.10;99.90;;;;;;5068394;28;20036;-86
2023/10/07 09:20:17;;;;;;;9.68;4.90;;;14.20;99.90;;;;;;5065606;28;20102;-86
2023/10/07 09:22:46;;;;;;;10.27;4.43;;;14.20;99.90;;;;;;5065617;28;20024;-85
2023/10/07 09:25:31;;;;;;;8.95;4.68;;;14.30;99.90;;;;;;5058089;28;20033;-86
2023/10/07 09:28:01;;;;;;;8.35;4.20;;;14.30;99.90;;;;;;5079910;28;20050;-86
2023/10/07 09:30:44;;;;;;;9.20;4.95;;;14.50;99.90;;;;;;5062623;28;20048;-87
2023/10/07 09:33:18;;;;;;;9.68;4.82;;;14.50;99.90;;;;;;5059245;28;20142;-87
2023/10/07 09:36:00;;;;;;;7.85;3.95;;;14.60;99.90;;;;;;5057982;28;20032;-86
2023/10/07 09:38:33;;;;;;;9.85;4.35;;;14.60;99.90;;;;;;5056588;28;20086;-86
2023/10/07 09:41:12;;;;;;;9.35;4.57;;;14.70;99.90;;;;;;5059446;28;20025;-86
2023/10/07 09:43:44;;;;;;;10.45;4.20;;;14.60;99.90;;;;;;5054952;28;20056;-87
2023/10/07 09:46:24;;;;;;;9.00;3.83;;;14.60;99.90;;;;;;5063252;28;20028;-87
2023/10/07 09:48:57;;;;;;;8.55;3.85;;;14.50;99.90;;;;;;5049099;28;20167;-86
2023/10/07 09:51:34;;;;;;;10.10;4.05;;;14.60;99.90;;;;;;5059597;28;20068;-86
2023/10/07 09:54:26;;;;;;;9.52;4.47;;;14.50;99.90;;;;;;5082279;28;20029;-85
2023/10/07 09:56:59;;;;;;;11.88;4.47;;;14.50;99.90;;;;;;5061963;28;20060;-86
2023/10/07 10:00:37;;;;;;;8.48;3.95;;;14.50;99.90;;;;;;5059391;28;20429;-85
2023/10/07 10:03:34;;;;;;;8.93;4.22;;;14.50;99.90;;;;;;5070423;28;20025;-86
2023/10/07 10:06:49;;;;;;;9.85;3.53;;;14.60;99.90;;;;;;5052809;28;20028;-85
2023/10/07 10:09:23;;;;;;;8.10;3.78;;;14.70;99.90;;;;;;5056964;28;20067;-86
2023/10/07 10:15:50;;;;;;;7.35;3.47;;;14.80;99.90;;;;;;5059993;28;20092;-88
2023/10/07 10:17:53;;;;;;;9.63;4.40;;;14.90;99.90;;;;;;5066100;28;20089;-85
2023/10/07 10:20:27;;;;;;;9.10;3.70;;;14.90;99.90;;;;;;5048808;28;20021;-86
2023/10/07 10:22:57;;;;;;;8.38;4.22;;;15.00;99.90;;;;;;5045631;28;20055;-85
2023/10/07 10:28:03;;;;;;;8.52;3.90;;;15.10;99.90;;;;;;5076929;28;20040;-86
2023/10/07 10:30:29;;;;;;;9.60;3.70;;;15.10;99.90;;;;;;5044282;28;20048;-85
2023/10/07 10:33:00;;;;;;;8.93;4.30;;;15.10;99.90;;;;;;5073794;28;20037;-85
2023/10/07 10:35:32;;;;;;;7.45;3.85;;;15.10;99.90;;;;;;5063415;28;20037;-86
2023/10/07 10:37:59;;;;;;;6.00;3.88;;;15.10;99.90;;;;;;5070441;28;20549;-86
2023/10/07 10:40:31;;;;;;;7.82;3.88;;;15.10;99.90;;;;;;5068544;28;20032;-85
2023/10/07 10:42:58;;;;;;;9.88;4.25;;;15.10;99.90;;;;;;5055489;28;20082;-87
2023/10/07 10:45:26;;;;;;;8.30;4.35;;;15.10;99.90;;;;;;5066119;28;20037;-85
2023/10/07 10:47:53;;;;;;;12.15;3.88;;;15.00;99.90;;;;;;5053853;28;20036;-85
2023/10/07 10:50:23;;;;;;;8.20;3.53;;;14.90;99.90;;;;;;5055629;28;20036;-84
2023/10/07 10:52:50;;;;;;;8.57;4.13;;;14.90;99.90;;;;;;5057113;28;20029;-85
2023/10/07 10:55:16;;;;;;;7.57;3.80;;;14.90;99.90;;;;;;5062345;28;20041;-85
2023/10/07 10:57:43;;;;;;;10.73;4.45;;;14.80;99.90;;;;;;5061072;28;20041;-85
2023/10/07 11:00:22;;;;;;;9.18;4.07;;;14.90;99.90;;;;;;5068080;28;20024;-85
2023/10/07 11:02:53;;;;;;;7.65;3.70;;;14.90;99.90;;;;;;5052121;28;20033;-86
2023/10/07 11:05:23;;;;;;;8.38;4.07;;;14.90;99.90;;;;;;5055106;28;20029;-84
2023/10/07 11:07:51;;;;;;;12.10;4.60;;;14.90;99.90;;;;;;5051188;28;20048;-85
2023/10/07 11:10:25;;;;;;;7.85;3.58;;;14.90;99.90;;;;;;5055404;28;20484;-86
2023/10/07 11:12:56;;;;;;;7.63;3.88;;;14.90;99.90;;;;;;5078867;28;20036;-85
2023/10/07 11:15:26;;;;;;;9.27;3.95;;;15.00;99.90;;;;;;5053850;28;20458;-87
2023/10/07 11:17:58;;;;;;;11.23;4.45;;;15.00;99.90;;;;;;5064087;28;20104;-86
2023/10/07 11:20:32;;;;;;;9.38;4.53;;;15.10;99.90;;;;;;5039212;28;20056;-88
2023/10/07 11:22:58;;;;;;;9.57;4.50;;;15.10;99.90;;;;;;5072356;28;20463;-86
2023/10/07 11:25:25;;;;;;;10.30;4.63;;;15.00;99.90;;;;;;5056884;28;20036;-84
2023/10/07 11:27:54;;;;;;;9.35;5.20;;;15.10;99.90;;;;;;5074550;28;20040;-86
2023/10/07 11:30:44;;;;;;;10.70;4.28;;;15.10;99.90;;;;;;5068637;28;20546;-86
2023/10/07 11:33:17;;;;;;;12.27;4.53;;;15.20;99.90;;;;;;5059797;28;20088;-85
2023/10/07 11:36:03;;;;;;;7.47;4.78;;;15.20;99.90;;;;;;5063520;28;20051;-85
2023/10/07 11:38:29;;;;;;;10.00;5.93;;;15.20;99.90;;;;;;5062177;28;20023;-86
2023/10/07 11:40:55;;;;;;;8.20;4.78;;;15.10;99.90;;;;;;5060470;28;20036;-86
2023/10/07 11:43:22;;;;;;;11.18;5.47;;;15.10;99.90;;;;;;5063403;28;20032;-85
2023/10/07 11:45:50;;;;;;;10.27;5.15;;;15.00;99.90;;;;;;5072283;28;20032;-85
2023/10/07 11:48:19;;;;;;;13.95;7.40;;;15.10;99.90;;;;;;5059592;28;20085;-85
2023/10/07 11:50:47;;;;;;;12.38;4.47;;;15.00;99.90;;;;;;5035408;28;20428;-87
2023/10/07 11:53:13;;;;;;;10.35;5.00;;;15.00;99.90;;;;;;5040953;28;20178;-87
2023/10/07 11:55:39;;;;;;;15.68;9.30;;;15.00;99.90;;;;;;5061525;28;20032;-86
2023/10/07 11:58:07;;;;;;;7.95;4.22;;;15.00;99.90;;;;;;5067126;28;20182;-86
2023/10/07 12:00:34;;;;;;;7.32;4.07;;;15.10;99.90;;;;;;5047522;28;20415;-88
2023/10/07 12:03:04;;;;;;;7.78;4.55;;;15.10;99.90;;;;;;5057636;28;20061;-84
2023/10/07 12:05:31;;;;;;;11.27;5.07;;;15.20;99.90;;;;;;5075852;28;20024;-84
2023/10/07 12:08:11;;;;;;;9.98;4.40;;;15.20;99.90;;;;;;5055217;28;20062;-84
2023/10/07 12:10:38;;;;;;;9.45;4.88;;;15.30;99.90;;;;;;5054798;28;20067;-85
2023/10/07 12:13:07;;;;;;;8.15;4.32;;;15.30;99.90;;;;;;5053937;28;20082;-86
2023/10/07 12:15:42;;;;;;;10.75;4.60;;;15.40;99.90;;;;;;5083679;28;20025;-84
2023/10/07 12:18:09;;;;;;;10.50;3.97;;;15.50;99.90;;;;;;5059999;28;20064;-84
2023/10/07 12:20:35;;;;;;;10.75;4.63;;;15.50;99.90;;;;;;5069508;28;20491;-86
2023/10/07 12:23:22;;;;;;;10.88;4.28;;;15.60;99.90;;;;;;5045006;28;20037;-86
2023/10/07 12:25:49;;;;;;;9.35;3.88;;;15.60;99.90;;;;;;5050878;28;20099;-87
2023/10/07 12:28:16;;;;;;;7.45;4.75;;;15.70;99.90;;;;;;5073393;28;20103;-86
2023/10/07 12:30:44;;;;;;;6.63;3.88;;;15.70;99.90;;;;;;5064839;28;20025;-86
2023/10/07 12:33:10;;;;;;;9.85;4.53;;;15.60;99.90;;;;;;5071078;28;20036;-87
2023/10/07 12:35:36;;;;;;;9.05;4.93;;;15.60;99.90;;;;;;5029690;28;20520;-87
2023/10/07 12:38:02;;;;;;;9.18;3.67;;;15.70;99.90;;;;;;5047267;28;20495;-87
2023/10/07 12:40:29;;;;;;;7.57;3.53;;;15.70;99.90;;;;;;5057229;28;20115;-86
2023/10/07 12:42:56;;;;;;;11.25;4.00;;;15.80;99.90;;;;;;5049169;28;20078;-87
2023/10/07 12:45:22;;;;;;;6.38;3.53;;;15.80;99.90;;;;;;5054238;28;20032;-88
2023/10/07 12:47:51;;;;;;;6.93;3.33;;;15.90;99.90;;;;;;5050095;28;20484;-88
2023/10/07 12:50:23;;;;;;;7.85;4.07;;;15.90;99.90;;;;;;5047099;28;20040;-87
2023/10/07 12:53:10;;;;;;;6.75;3.40;;;16.00;99.90;;;;;;5058298;28;20040;-87
2023/10/07 12:55:36;;;;;;;7.47;4.15;;;16.00;99.90;;;;;;5056264;28;20363;-88
2023/10/07 12:58:09;;;;;;;7.72;3.50;;;16.00;99.90;;;;;;5044105;28;20570;-87
2023/10/07 13:00:36;;;;;;;8.95;3.20;;;16.10;99.90;;;;;;5050234;28;20028;-86
2023/10/07 13:03:05;;;;;;;7.10;3.40;;;16.20;99.90;;;;;;5057143;28;20021;-87
2023/10/07 13:05:37;;;;;;;8.95;3.28;;;16.30;99.90;;;;;;5050813;28;20040;-87
2023/10/07 13:08:12;;;;;;;5.07;2.95;;;16.30;99.90;;;;;;5039130;28;20520;-86
2023/10/07 13:10:38;;;;;;;7.38;3.60;;;16.40;99.90;;;;;;5055664;28;20376;-87
2023/10/07 13:13:04;;;;;;;7.07;3.42;;;16.40;99.90;;;;;;5054066;28;20085;-88
2023/10/07 13:15:30;;;;;;;8.25;3.17;;;16.40;99.90;;;;;;5043958;28;20076;-86
2023/10/07 13:18:01;;;;;;;6.65;3.15;;;16.40;99.90;;;;;;5056793;28;20028;-88
2023/10/07 13:20:27;;;;;;;6.05;3.42;;;16.40;99.90;;;;;;5072978;28;20477;-87
2023/10/07 13:22:55;;;;;;;7.28;3.55;;;16.40;99.90;;;;;;5051472;28;20480;-87
2023/10/07 13:25:21;;;;;;;9.25;3.50;;;16.30;99.90;;;;;;5045533;28;20082;-87
2023/10/07 13:27:48;;;;;;;6.20;3.38;;;16.20;99.90;;;;;;5061352;28;20062;-86
2023/10/07 13:30:17;;;;;;;8.07;3.25;;;16.20;99.90;;;;;;5042343;28;20024;-88
2023/10/07 13:32:46;;;;;;;6.05;2.85;;;16.10;99.90;;;;;;5051193;28;20029;-87
2023/10/07 13:35:19;;;;;;;5.43;2.85;;;16.00;99.90;;;;;;5055953;28;20040;-87
2023/10/07 13:37:46;;;;;;;7.22;3.03;;;15.90;99.90;;;;;;5051070;28;20716;-86
2023/10/07 13:40:16;;;;;;;9.18;2.90;;;15.80;99.90;;;;;;5062340;28;20036;-86
2023/10/07 13:42:47;;;;;;;7.05;2.95;;;15.80;99.90;;;;;;5052120;28;20351;-86
2023/10/07 13:45:24;;;;;;;7.43;3.30;;;15.70;99.90;;;;;;5060799;28;20390;-86